Historyczne dane pomiarowe

Dodano dane terminowe – wersja testowa.

Dane z okresu 1951-2019

Wersja bazy: 1.34 [2019-03-16, lista zmian], aktualizacja planowana na 2019-04-15

Dane meteo z obszaru Polski uzyskane na podstawie danych udostępnionych przez Instytut Meteorologii i Gospodarki Wodnej – Państwowy Instytut Badawczy.

 

Wybierz Datę:    

       

TemperaturaWilgotnośćWiatrCiśnienieOpadyŚniegCzas trwania zjawisk
 Stacja t tx tn tng RH VA  wxwx mslp ppp RRR   cm mm wxwxwxwxwxwxwx
1962-02-14 -3.7 0.8 -8.7- 83.5- 1.7 1.3---- 0.0-- 11---------
1962-02-15 -5.8 -3.4 -7.3- 84.8- 3.3 8.7---- 0.8-- 11---------
1962-02-16 -1.4 2.4 -9.9- 82.5- 6.7 19.0---- 5.9-- 15---------
1962-02-17 -1.7 2.7 -3.8- 83.8- 3.3 11.7---- 1.7-- 20---------
1962-02-18 -3.0 -1.8 -4.2- 90.5- 8.0 15.3---- 0.4-- 25---------
1962-02-19 -3.7 0.0-10.9- 85.8- 5.3 1.3---- 1.9-- 29---------
1962-02-20 2.2 3.0 -1.9- 85.8- 8.0 6.7---- 1.2-- 28---------
1962-02-21 -3.8 2.5 -5.7- 86.3- 8.0 9.7---- 0.0-- 21---------
1962-02-22 -7.7 -4.4 -9.7- 84.3- 5.3 2.7---- 0.0-- 22---------
1962-02-23 -5.6 -4.3-13.2- 81.0- 4.7 7.7---- 0.3-- 23---------
1962-02-24 -6.5 -4.3 -7.7- 86.0- 6.3 5.3---- 0.9-- 24---------
1962-02-25 -5.7 -3.7-10.3- 85.3- 7.3 5.3---- 3.7-- 22---------
1962-02-26 -4.2 -2.1 -4.9- 87.8- 8.0 2.0---- 0.1-- 28---------
1962-02-27 -9.1 -3.5-14.1- 81.8- 5.3 1.7---- 0.0-- 27---------
1962-02-28-11.7 -4.3-17.2- 77.0- 2.7 1.3---- 0.0-- 27---------
1962-03-01-12.9 -2.7-19.9- 78.5- 0.0 0.7---- 0.0-- 27---------
1962-03-02 -9.4 -4.2-22.5- 76.8- 6.7 1.0---- 0.0-- 27---------
1962-03-03 -4.1 0.2 -9.3- 83.3- 7.3 0.7---- 0.0-- 25---------
1962-03-04 0.0 1.7 -7.5- 87.5- 8.0 1.3---- 2.5-- 25---------
1962-03-05 -1.8 0.3 -2.3- 93.5- 8.0 1.0---- 7.4-- 25---------
1962-03-06 -0.7 0.3 -3.0- 91.8- 8.0 2.3---- 7.0-- 22---------
1962-03-07 -5.6 -0.9 -8.0- 87.5- 3.0 3.3---- 0.0-- 24---------
1962-03-08 -4.9 0.3-15.5- 88.5- 4.0 2.3---- 0.0-- 23---------
1962-03-09 -4.9 -1.2 -8.5- 85.8- 3.0 1.7---- 0.0-- 23---------
1962-03-10 -1.2 2.7 -6.2- 86.0- 2.7 6.7---- 0.0-- 22---------
1962-03-11 2.0 4.4 -1.8- 85.5- 8.0 1.7---- 0.1-- 21---------
1962-03-12 1.4 4.5 0.1- 91.0- 8.0 0.7---- 10.2-- 17---------
1962-03-13 -5.4 0.4 -6.2- 85.8- 5.3 6.7---- 2.6-- 23---------
1962-03-14 -7.2 -2.6-10.0- 76.8- 1.7 3.3---- 0.0-- 30---------
1962-03-15-10.5 -0.7-21.9- 81.0- 5.3 1.3---- 0.0-- 27---------
286.4 ms

 

Źródłem pochodzenia danych jest Instytut Meteorologii i Gospodarki Wodnej – Państwowy Instytut Badawczy. Dane Instytutu Meteorologii i Gospodarki Wodnej – Państwowego Instytutu Badawczego zostały przetworzone.

Dane źródłowe można odnaleźć na stronie https://dane.imgw.pl